Time;durP1;ratioP1;P1;durP2;ratioP2;P2;SDS_P1;SDS_P2;PMS_P1;PMS_P2;Temp;Humidity;BMP_temperature;BMP_pressure;BME280_temperature;BME280_humidity;BME280_pressure;Samples;Min_cycle;Max_cycle;Signal;HPM_P1;HPM_P2
2021/10/05 00:01:48;;;;;;;8.10;3.93;;;;;;;-145.18;0.00;102943.50;5077979;28;20035;-69
2021/10/05 00:04:14;;;;;;;8.37;4.83;;;;;;;-145.18;0.00;102943.50;5078074;28;20044;-69
2021/10/05 00:06:40;;;;;;;10.87;4.23;;;;;;;-145.18;0.00;102943.50;5082069;28;20024;-70
2021/10/05 00:09:06;;;;;;;8.47;4.40;;;;;;;-145.18;0.00;102943.50;5081705;28;20040;-69
2021/10/05 00:11:32;;;;;;;8.70;4.23;;;;;;;-145.18;0.00;102943.50;5081985;28;20130;-70
2021/10/05 00:13:58;;;;;;;8.80;4.60;;;;;;;-145.18;0.00;102943.50;5091935;28;20053;-69
2021/10/05 00:16:23;;;;;;;9.37;5.17;;;;;;;-145.18;0.00;102943.50;5082281;28;20039;-69
2021/10/05 00:18:49;;;;;;;8.40;4.67;;;;;;;-145.18;0.00;102943.50;5088307;28;20027;-69
2021/10/05 00:21:16;;;;;;;8.07;4.70;;;;;;;-145.18;0.00;102943.50;5089645;28;20030;-69
2021/10/05 00:23:41;;;;;;;8.43;4.40;;;;;;;-145.18;0.00;102943.50;5093912;28;20039;-70
2021/10/05 00:26:07;;;;;;;8.40;4.27;;;;;;;-145.18;0.00;102943.50;5082134;28;20020;-69
2021/10/05 00:28:32;;;;;;;9.57;4.27;;;;;;;-145.18;0.00;102943.50;5081851;28;20085;-70
2021/10/05 00:30:58;;;;;;;15.93;5.07;;;;;;;-145.18;0.00;102943.50;5081523;28;20032;-69
2021/10/05 00:33:24;;;;;;;8.60;4.37;;;;;;;-145.18;0.00;102943.50;5081629;28;20028;-69
2021/10/05 00:35:49;;;;;;;9.80;4.73;;;;;;;-145.18;0.00;102943.50;5082158;28;20034;-70
2021/10/05 00:38:15;;;;;;;9.93;5.23;;;;;;;-145.18;0.00;102943.50;5081924;28;20285;-69
2021/10/05 00:40:40;;;;;;;8.63;4.63;;;;;;;-145.18;0.00;102943.50;5081381;28;20523;-69
2021/10/05 00:43:08;;;;;;;11.10;5.20;;;;;;;-145.18;0.00;102943.50;5081872;28;20081;-69
2021/10/05 00:45:34;;;;;;;11.03;5.87;;;;;;;-145.18;0.00;102943.50;5082024;28;20105;-69
2021/10/05 00:48:00;;;;;;;11.77;5.53;;;;;;;-145.18;0.00;102943.50;5081441;28;20093;-70
2021/10/05 00:50:25;;;;;;;9.20;5.10;;;;;;;-145.18;0.00;102943.50;5081316;28;20032;-70
2021/10/05 00:52:51;;;;;;;10.50;5.50;;;;;;;-145.18;0.00;102943.50;5081412;28;20028;-70
2021/10/05 00:55:16;;;;;;;11.13;5.43;;;;;;;-145.18;0.00;102943.50;5081824;28;20120;-70
2021/10/05 00:57:42;;;;;;;10.07;5.00;;;;;;;-145.18;0.00;102943.50;5081398;28;20320;-69
2021/10/05 01:00:09;;;;;;;11.33;5.40;;;;;;;-145.18;0.00;102943.50;5081283;28;20055;-69
2021/10/05 01:02:35;;;;;;;13.73;5.33;;;;;;;-145.18;0.00;102943.50;5079615;22;20572;-68
2021/10/05 01:05:00;;;;;;;10.00;5.33;;;;;;;-145.18;0.00;102943.50;5042819;28;20112;-68
2021/10/05 01:07:26;;;;;;;11.00;5.43;;;;;;;-145.18;0.00;102943.50;5041417;28;20036;-68
2021/10/05 01:09:53;;;;;;;12.73;5.40;;;;;;;-145.18;0.00;102943.50;5058068;28;20058;-68
2021/10/05 01:12:19;;;;;;;11.70;5.37;;;;;;;-145.18;0.00;102943.50;5060544;28;20055;-68
2021/10/05 01:14:45;;;;;;;10.00;4.97;;;;;;;-145.18;0.00;102943.50;5060648;28;20048;-68
2021/10/05 01:17:11;;;;;;;11.43;4.90;;;;;;;-145.18;0.00;102943.50;5056372;28;20020;-68
2021/10/05 01:19:37;;;;;;;10.90;5.40;;;;;;;-145.18;0.00;102943.50;5060452;28;20031;-68
2021/10/05 01:22:03;;;;;;;11.57;5.67;;;;;;;-145.18;0.00;102943.50;5053962;28;20108;-68
2021/10/05 01:24:28;;;;;;;13.57;5.50;;;;;;;-145.18;0.00;102943.50;5060435;28;20254;-68
2021/10/05 01:26:55;;;;;;;13.30;5.80;;;;;;;-145.18;0.00;102943.50;5060770;28;20529;-68
2021/10/05 01:29:26;;;;;;;12.53;6.30;;;;;;;-145.18;0.00;102943.50;5060395;28;20197;-68
2021/10/05 01:31:53;;;;;;;10.90;5.80;;;;;;;-145.18;0.00;102943.50;5047395;28;20044;-68
2021/10/05 01:34:20;;;;;;;15.63;5.77;;;;;;;-145.18;0.00;102943.50;5056380;28;20033;-68
2021/10/05 01:36:51;;;;;;;10.33;5.47;;;;;;;-145.18;0.00;102943.50;5060589;28;20055;-68
2021/10/05 01:39:28;;;;;;;12.37;5.83;;;;;;;-145.18;0.00;102943.50;5057172;28;20040;-68
2021/10/05 01:42:00;;;;;;;15.00;5.87;;;;;;;-145.18;0.00;102943.50;5057753;28;20024;-68
2021/10/05 01:44:26;;;;;;;13.52;6.00;;;;;;;-145.18;0.00;102943.50;5060076;28;20115;-68
2021/10/05 01:46:52;;;;;;;13.23;6.63;;;;;;;-145.18;0.00;102943.50;5060653;28;20123;-68
2021/10/05 01:49:19;;;;;;;13.63;6.60;;;;;;;-145.18;0.00;102943.50;5057079;28;20052;-68
2021/10/05 01:51:45;;;;;;;13.27;6.10;;;;;;;-145.18;0.00;102943.50;5060305;28;20035;-68
2021/10/05 01:54:13;;;;;;;12.93;6.40;;;;;;;-145.18;0.00;102943.50;5059725;28;20032;-68
2021/10/05 01:56:38;;;;;;;15.73;6.37;;;;;;;-145.18;0.00;102943.50;5060666;28;20032;-68
2021/10/05 01:59:04;;;;;;;14.30;6.17;;;;;;;-145.18;0.00;102943.50;5059465;28;20116;-68
2021/10/05 02:01:30;;;;;;;14.20;6.00;;;;;;;-145.18;0.00;102943.50;5060028;28;20605;-68
2021/10/05 02:03:55;;;;;;;15.30;6.33;;;;;;;-145.18;0.00;102943.50;5043036;28;20076;-68
2021/10/05 02:06:23;;;;;;;18.17;6.83;;;;;;;-145.18;0.00;102943.50;5040382;28;20613;-68
2021/10/05 02:08:48;;;;;;;13.87;6.27;;;;;;;-145.18;0.00;102943.50;5034994;28;20039;-68
2021/10/05 02:11:14;;;;;;;14.30;6.50;;;;;;;-145.18;0.00;102943.50;5040090;28;20533;-68
2021/10/05 02:13:41;;;;;;;14.87;6.57;;;;;;;-145.18;0.00;102943.50;5037615;28;20025;-68
2021/10/05 02:16:07;;;;;;;14.03;6.87;;;;;;;-145.18;0.00;102943.50;5039942;28;20075;-68
2021/10/05 02:18:33;;;;;;;16.87;6.73;;;;;;;-145.18;0.00;102943.50;5033691;28;20029;-68
2021/10/05 02:20:58;;;;;;;16.87;7.13;;;;;;;-145.18;0.00;102943.50;5037174;28;20052;-68
2021/10/05 02:23:25;;;;;;;14.57;6.07;;;;;;;-145.18;0.00;102943.50;5033919;28;20040;-68
2021/10/05 02:25:50;;;;;;;15.60;6.47;;;;;;;-145.18;0.00;102943.50;5037941;28;20573;-68
2021/10/05 02:28:16;;;;;;;16.97;6.80;;;;;;;-145.18;0.00;102943.50;5027779;28;20116;-68
2021/10/05 02:30:42;;;;;;;15.63;7.20;;;;;;;-145.18;0.00;102943.50;5027439;28;20021;-68
2021/10/05 02:33:08;;;;;;;15.63;6.80;;;;;;;-145.18;0.00;102943.50;5029740;28;20724;-68
2021/10/05 02:35:33;;;;;;;15.23;7.10;;;;;;;-145.18;0.00;102943.50;5036787;28;20056;-67
2021/10/05 02:37:59;;;;;;;16.80;7.00;;;;;;;-145.18;0.00;102943.50;5037645;28;20445;-67
2021/10/05 02:40:24;;;;;;;15.40;6.27;;;;;;;-145.18;0.00;102943.50;5036308;28;20252;-67
2021/10/05 02:42:50;;;;;;;14.07;6.70;;;;;;;-145.18;0.00;102943.50;5039612;28;20102;-67
2021/10/05 02:45:15;;;;;;;14.53;6.30;;;;;;;-145.18;0.00;102943.50;5035548;28;20110;-67
2021/10/05 02:47:41;;;;;;;12.53;6.17;;;;;;;-145.18;0.00;102943.50;5036567;28;20568;-67
2021/10/05 02:50:07;;;;;;;16.40;6.20;;;;;;;-145.18;0.00;102943.50;5037697;28;20056;-67
2021/10/05 02:52:32;;;;;;;14.10;6.60;;;;;;;-145.18;0.00;102943.50;5039777;28;20021;-68
2021/10/05 02:54:58;;;;;;;14.60;6.40;;;;;;;-145.18;0.00;102943.50;5039032;28;20265;-68
2021/10/05 02:57:23;;;;;;;21.37;7.53;;;;;;;-145.18;0.00;102943.50;5039406;28;20035;-67
2021/10/05 02:59:49;;;;;;;16.20;6.77;;;;;;;-145.18;0.00;102943.50;5038666;28;20428;-67
2021/10/05 03:02:15;;;;;;;16.23;6.97;;;;;;;-145.18;0.00;102943.50;5039425;28;20045;-68
2021/10/05 03:04:41;;;;;;;12.07;6.10;;;;;;;-145.18;0.00;102943.50;5038799;28;20021;-68
2021/10/05 03:07:07;;;;;;;14.53;7.00;;;;;;;-145.18;0.00;102943.50;5039023;28;20041;-67
2021/10/05 03:09:34;;;;;;;17.93;7.27;;;;;;;-145.18;0.00;102943.50;5027186;28;20061;-68
2021/10/05 03:12:00;;;;;;;14.33;6.33;;;;;;;-145.18;0.00;102943.50;5041199;28;20029;-67
2021/10/05 03:14:25;;;;;;;14.93;6.80;;;;;;;-145.18;0.00;102943.50;5038509;28;20028;-67
2021/10/05 03:16:51;;;;;;;15.60;6.70;;;;;;;-145.18;0.00;102943.50;5038827;28;20017;-68
2021/10/05 03:19:17;;;;;;;15.83;6.80;;;;;;;-145.18;0.00;102943.50;5036838;28;20504;-68
2021/10/05 03:21:42;;;;;;;15.70;6.83;;;;;;;-145.18;0.00;102943.50;5039179;28;20210;-67
2021/10/05 03:24:08;;;;;;;14.80;6.00;;;;;;;-145.18;0.00;102943.50;5037502;28;20461;-67
2021/10/05 03:26:34;;;;;;;14.23;6.90;;;;;;;-145.18;0.00;102943.50;5038477;28;20021;-67
2021/10/05 03:29:00;;;;;;;18.23;6.60;;;;;;;-145.18;0.00;102943.50;5038543;28;20542;-67
2021/10/05 03:31:25;;;;;;;14.97;6.70;;;;;;;-145.18;0.00;102943.50;5039121;28;20048;-67
2021/10/05 03:33:51;;;;;;;16.33;7.13;;;;;;;-145.18;0.00;102943.50;5030191;28;20068;-67
2021/10/05 03:36:17;;;;;;;14.43;6.63;;;;;;;-145.18;0.00;102943.50;5035108;28;20554;-67
2021/10/05 03:38:43;;;;;;;14.17;6.60;;;;;;;-145.18;0.00;102943.50;5038065;28;20224;-67
2021/10/05 03:41:10;;;;;;;15.87;6.10;;;;;;;-145.18;0.00;102943.50;5041896;28;20021;-67
2021/10/05 03:43:36;;;;;;;14.87;7.00;;;;;;;-145.18;0.00;102943.50;5036361;28;20301;-68
2021/10/05 03:46:03;;;;;;;17.57;7.23;;;;;;;-145.18;0.00;102943.50;5038410;28;20056;-67
2021/10/05 03:48:30;;;;;;;17.43;7.27;;;;;;;-145.18;0.00;102943.50;5041027;28;20086;-67
2021/10/05 03:50:56;;;;;;;14.07;6.60;;;;;;;-145.18;0.00;102943.50;5042856;28;20107;-67
2021/10/05 03:53:22;;;;;;;14.47;6.83;;;;;;;-145.18;0.00;102943.50;5038104;28;20220;-67
2021/10/05 03:55:54;;;;;;;14.23;6.67;;;;;;;-145.18;0.00;102943.50;5039420;28;20033;-67
2021/10/05 03:58:20;;;;;;;15.68;6.68;;;;;;;-145.18;0.00;102943.50;5037890;28;20057;-67
2021/10/05 04:00:47;;;;;;;14.03;6.57;;;;;;;-145.18;0.00;102943.50;5040078;28;20504;-67
2021/10/05 04:03:13;;;;;;;14.20;7.10;;;;;;;-145.18;0.00;102943.50;5038566;28;20499;-67
2021/10/05 04:05:39;;;;;;;13.67;6.20;;;;;;;-145.18;0.00;102943.50;5039860;28;20025;-67
2021/10/05 04:08:05;;;;;;;13.97;6.30;;;;;;;-145.18;0.00;102943.50;5039594;28;20029;-67
2021/10/05 04:10:31;;;;;;;15.07;6.30;;;;;;;-145.18;0.00;102943.50;5039460;28;20025;-67
2021/10/05 04:12:57;;;;;;;15.70;6.63;;;;;;;-145.18;0.00;102943.50;5040842;28;20406;-67
2021/10/05 04:15:22;;;;;;;15.00;6.27;;;;;;;-145.18;0.00;102943.50;5047284;28;20079;-67
2021/10/05 04:17:48;;;;;;;16.73;7.10;;;;;;;-145.18;0.00;102943.50;5041746;28;20502;-67
2021/10/05 04:20:15;;;;;;;18.00;7.63;;;;;;;-145.18;0.00;102943.50;5040178;28;20673;-67
2021/10/05 04:22:40;;;;;;;17.27;7.00;;;;;;;-145.18;0.00;102943.50;5042202;28;20032;-67
2021/10/05 04:25:07;;;;;;;15.87;7.00;;;;;;;-145.18;0.00;102943.50;5047370;28;20225;-67
2021/10/05 04:27:37;;;;;;;17.33;7.60;;;;;;;-145.18;0.00;102943.50;5042000;28;20057;-67
2021/10/05 04:30:04;;;;;;;17.73;7.30;;;;;;;-145.18;0.00;102943.50;5041809;28;20028;-68
2021/10/05 04:32:30;;;;;;;17.03;7.60;;;;;;;-145.18;0.00;102943.50;5041473;28;20091;-67
2021/10/05 04:34:55;;;;;;;18.47;6.77;;;;;;;-145.18;0.00;102943.50;5041010;28;20498;-67
2021/10/05 04:37:21;;;;;;;15.97;7.10;;;;;;;-145.18;0.00;102943.50;5041733;28;20253;-67
2021/10/05 04:39:47;;;;;;;15.77;7.47;;;;;;;-145.18;0.00;102943.50;5035458;28;20032;-67
2021/10/05 04:42:12;;;;;;;17.83;7.90;;;;;;;-145.18;0.00;102943.50;5041803;28;20397;-67
2021/10/05 04:44:38;;;;;;;17.27;7.63;;;;;;;-145.18;0.00;102943.50;5038408;28;20036;-68
2021/10/05 04:47:04;;;;;;;18.20;7.47;;;;;;;-145.18;0.00;102943.50;5041973;28;20511;-67
2021/10/05 04:49:30;;;;;;;16.33;7.50;;;;;;;-145.18;0.00;102943.50;5039701;28;20036;-68
2021/10/05 04:51:55;;;;;;;18.43;7.50;;;;;;;-145.18;0.00;102943.50;5040314;28;20025;-68
2021/10/05 04:54:21;;;;;;;17.63;7.63;;;;;;;-145.18;0.00;102943.50;5039997;28;20409;-68
2021/10/05 04:56:48;;;;;;;20.90;8.40;;;;;;;-145.18;0.00;102943.50;5041246;28;20112;-68
2021/10/05 04:59:16;;;;;;;19.23;7.63;;;;;;;-145.18;0.00;102943.50;5040327;28;20454;-68
2021/10/05 05:01:42;;;;;;;22.50;8.70;;;;;;;-145.18;0.00;102943.50;5041010;28;20078;-68
2021/10/05 05:04:07;;;;;;;18.57;8.00;;;;;;;-145.18;0.00;102943.50;5035062;28;20499;-68
2021/10/05 05:06:33;;;;;;;20.50;8.07;;;;;;;-145.18;0.00;102943.50;5034104;28;20375;-68
2021/10/05 05:08:58;;;;;;;21.87;7.40;;;;;;;-145.18;0.00;102943.50;5033122;28;20083;-68
2021/10/05 05:11:24;;;;;;;22.60;7.80;;;;;;;-145.18;0.00;102943.50;5041330;28;20280;-68
2021/10/05 05:13:49;;;;;;;20.50;8.77;;;;;;;-145.18;0.00;102943.50;5034336;28;20030;-68
2021/10/05 05:16:15;;;;;;;20.47;8.50;;;;;;;-145.18;0.00;102943.50;5036817;28;20021;-68
2021/10/05 05:18:40;;;;;;;26.10;8.70;;;;;;;-145.18;0.00;102943.50;5037163;28;20268;-68
2021/10/05 05:21:12;;;;;;;25.67;8.63;;;;;;;-145.18;0.00;102943.50;5039920;28;20161;-68
2021/10/05 05:23:38;;;;;;;20.77;8.48;;;;;;;-145.18;0.00;102943.50;5040799;28;20359;-68
2021/10/05 05:26:03;;;;;;;21.73;9.37;;;;;;;-145.18;0.00;102943.50;5037817;28;20094;-68
2021/10/05 05:28:29;;;;;;;22.80;10.07;;;;;;;-145.18;0.00;102943.50;5037455;28;20017;-68
2021/10/05 05:30:55;;;;;;;22.47;8.47;;;;;;;-145.18;0.00;102943.50;5036440;28;20264;-68
2021/10/05 05:33:21;;;;;;;19.73;8.57;;;;;;;-145.18;0.00;102943.50;5040130;28;20039;-68
2021/10/05 05:35:47;;;;;;;26.03;10.53;;;;;;;-145.18;0.00;102943.50;5040721;28;20032;-68
2021/10/05 05:38:13;;;;;;;23.83;8.63;;;;;;;-145.18;0.00;102943.50;5038238;28;20483;-68
2021/10/05 05:40:39;;;;;;;22.97;9.07;;;;;;;-145.18;0.00;102943.50;5039551;28;20049;-68
2021/10/05 05:43:04;;;;;;;22.17;8.43;;;;;;;-145.18;0.00;102943.50;5034072;28;20024;-68
2021/10/05 05:45:30;;;;;;;21.77;7.77;;;;;;;-145.18;0.00;102943.50;5035165;28;20517;-68
2021/10/05 05:47:56;;;;;;;20.20;8.57;;;;;;;-145.18;0.00;102943.50;5034601;28;20029;-68
2021/10/05 05:50:21;;;;;;;21.40;8.57;;;;;;;-145.18;0.00;102943.50;5034706;28;20388;-67
2021/10/05 05:52:47;;;;;;;21.53;8.33;;;;;;;-145.18;0.00;102943.50;5039976;28;20512;-68
2021/10/05 05:55:15;;;;;;;20.23;8.07;;;;;;;-145.18;0.00;102943.50;5035344;28;20582;-68
2021/10/05 05:57:41;;;;;;;20.63;9.17;;;;;;;-145.18;0.00;102943.50;5039525;28;20104;-68
2021/10/05 06:00:08;;;;;;;22.90;8.50;;;;;;;-145.18;0.00;102943.50;5036492;28;20037;-68
2021/10/05 06:02:33;;;;;;;21.13;8.63;;;;;;;-145.18;0.00;102943.50;5039240;28;20245;-68
2021/10/05 06:04:59;;;;;;;22.37;8.80;;;;;;;-145.18;0.00;102943.50;5037646;28;20036;-68
2021/10/05 06:07:25;;;;;;;19.87;8.63;;;;;;;-145.18;0.00;102943.50;5040242;28;20104;-67
2021/10/05 06:09:50;;;;;;;21.20;9.20;;;;;;;-145.18;0.00;102943.50;5038102;28;20273;-68
2021/10/05 06:12:19;;;;;;;20.73;8.83;;;;;;;-145.18;0.00;102943.50;5029078;28;20024;-67
2021/10/05 06:14:45;;;;;;;27.30;9.97;;;;;;;-145.18;0.00;102943.50;5039354;28;20449;-68
2021/10/05 06:17:11;;;;;;;23.67;9.17;;;;;;;-145.18;0.00;102943.50;5040090;28;20017;-68
2021/10/05 06:19:36;;;;;;;24.47;9.87;;;;;;;-145.18;0.00;102943.50;5026866;28;20029;-67
2021/10/05 06:22:02;;;;;;;18.43;7.77;;;;;;;-145.18;0.00;102943.50;5039582;28;20429;-67
2021/10/05 06:24:28;;;;;;;21.47;8.10;;;;;;;-145.18;0.00;102943.50;5028126;28;20186;-67
2021/10/05 06:26:53;;;;;;;18.70;7.93;;;;;;;-145.18;0.00;102943.50;5031663;28;20029;-67
2021/10/05 06:29:19;;;;;;;15.90;7.43;;;;;;;-145.18;0.00;102943.50;5021478;28;20098;-67
2021/10/05 06:31:45;;;;;;;19.20;8.17;;;;;;;-145.18;0.00;102943.50;5028179;28;20057;-67
2021/10/05 06:34:10;;;;;;;17.10;7.93;;;;;;;-145.18;0.00;102943.50;5030208;28;20089;-67
2021/10/05 06:36:36;;;;;;;17.17;8.10;;;;;;;-145.18;0.00;102943.50;5039748;28;20032;-67
2021/10/05 06:39:02;;;;;;;15.50;7.53;;;;;;;-145.18;0.00;102943.50;5031414;28;20424;-67
2021/10/05 06:41:27;;;;;;;18.13;7.30;;;;;;;-145.18;0.00;102943.50;5039656;28;20077;-67
2021/10/05 06:43:53;;;;;;;14.87;6.93;;;;;;;-145.18;0.00;102943.50;5035117;28;20041;-67
2021/10/05 06:46:19;;;;;;;22.43;8.67;;;;;;;-145.18;0.00;102943.50;5034911;28;20150;-67
2021/10/05 06:48:44;;;;;;;19.60;8.07;;;;;;;-145.18;0.00;102943.50;5038004;28;20025;-67
2021/10/05 06:51:10;;;;;;;15.67;7.70;;;;;;;-145.18;0.00;102943.50;5039590;28;20514;-68
2021/10/05 06:53:35;;;;;;;15.67;7.13;;;;;;;-145.18;0.00;102943.50;5038412;28;20091;-67
2021/10/05 06:56:01;;;;;;;12.57;6.63;;;;;;;-145.18;0.00;102943.50;5039352;28;20477;-69
2021/10/05 06:58:27;;;;;;;16.43;7.03;;;;;;;-145.18;0.00;102943.50;5038366;28;20172;-68
2021/10/05 07:00:52;;;;;;;14.07;6.43;;;;;;;-145.18;0.00;102943.50;5039101;28;20024;-68
2021/10/05 07:03:18;;;;;;;13.83;6.47;;;;;;;-145.18;0.00;102943.50;5034104;28;20107;-67
2021/10/05 07:05:44;;;;;;;15.07;6.63;;;;;;;-145.18;0.00;102943.50;5030858;28;20029;-67
2021/10/05 07:08:10;;;;;;;12.13;6.07;;;;;;;-145.18;0.00;102943.50;5035724;28;20427;-67
2021/10/05 07:10:37;;;;;;;11.77;5.93;;;;;;;-145.18;0.00;102943.50;5030015;28;20520;-67
2021/10/05 07:13:04;;;;;;;13.53;6.40;;;;;;;-145.18;0.00;102943.50;5035942;28;20029;-67
2021/10/05 07:15:30;;;;;;;13.77;7.23;;;;;;;-145.18;0.00;102943.50;5029637;28;20421;-68
2021/10/05 07:17:56;;;;;;;16.00;6.70;;;;;;;-145.18;0.00;102943.50;5037959;28;20064;-67
2021/10/05 07:20:22;;;;;;;13.17;7.13;;;;;;;-145.18;0.00;102943.50;5030461;28;20023;-68
2021/10/05 07:22:48;;;;;;;17.50;7.00;;;;;;;-145.18;0.00;102943.50;5038456;28;20478;-68
2021/10/05 07:25:14;;;;;;;13.23;6.70;;;;;;;-145.18;0.00;102943.50;5035210;28;20025;-68
2021/10/05 07:27:39;;;;;;;14.70;6.40;;;;;;;-145.18;0.00;102943.50;5038605;28;20252;-68
2021/10/05 07:30:06;;;;;;;14.30;6.93;;;;;;;-145.18;0.00;102943.50;5030874;28;20525;-68
2021/10/05 07:32:33;;;;;;;14.80;6.80;;;;;;;-145.18;0.00;102943.50;5038967;28;20028;-67
2021/10/05 07:35:00;;;;;;;14.47;6.57;;;;;;;-145.18;0.00;102943.50;5031445;28;20033;-68
2021/10/05 07:37:26;;;;;;;12.20;5.83;;;;;;;-145.18;0.00;102943.50;5038682;28;20078;-68
2021/10/05 07:39:57;;;;;;;12.83;5.33;;;;;;;-145.18;0.00;102943.50;5032822;28;20025;-68
2021/10/05 07:42:23;;;;;;;12.37;6.03;;;;;;;-145.18;0.00;102943.50;5038739;28;20021;-68
2021/10/05 07:44:49;;;;;;;12.77;6.23;;;;;;;-145.18;0.00;102943.50;5035315;28;20290;-68
2021/10/05 07:47:16;;;;;;;12.83;6.47;;;;;;;-145.18;0.00;102943.50;5038775;28;20029;-68
2021/10/05 07:49:41;;;;;;;13.63;7.17;;;;;;;-145.18;0.00;102943.50;5037130;28;20029;-68
2021/10/05 07:52:07;;;;;;;16.70;6.07;;;;;;;-145.18;0.00;102943.50;5038767;28;20024;-68
2021/10/05 07:54:32;;;;;;;14.73;6.83;;;;;;;-145.18;0.00;102943.50;5035828;28;20287;-68
2021/10/05 07:56:58;;;;;;;11.07;5.47;;;;;;;-145.18;0.00;102943.50;5038477;28;20025;-68
2021/10/05 07:59:23;;;;;;;12.07;5.47;;;;;;;-145.18;0.00;102943.50;5037113;28;20029;-68
2021/10/05 08:01:50;;;;;;;13.77;6.10;;;;;;;-145.18;0.00;102943.50;5038401;28;20043;-66
2021/10/05 08:04:17;;;;;;;13.50;5.93;;;;;;;-145.18;0.00;102943.50;5038100;28;20098;-67
2021/10/05 08:06:43;;;;;;;13.77;6.30;;;;;;;-145.18;0.00;102943.50;5038693;28;20209;-67
2021/10/05 08:09:09;;;;;;;13.60;6.10;;;;;;;-145.18;0.00;102943.50;5027344;28;20380;-66
2021/10/05 08:11:34;;;;;;;12.30;6.33;;;;;;;-145.18;0.00;102943.50;5037576;28;20024;-67
2021/10/05 08:14:00;;;;;;;11.13;5.53;;;;;;;-145.18;0.00;102943.50;5028609;28;20140;-67
2021/10/05 08:16:30;;;;;;;11.17;5.50;;;;;;;-145.18;0.00;102943.50;5036286;28;20106;-67
2021/10/05 08:19:00;;;;;;;10.97;5.70;;;;;;;-145.18;0.00;102943.50;5028755;28;20340;-67
2021/10/05 08:21:27;;;;;;;14.60;5.87;;;;;;;-145.18;0.00;102943.50;5037545;28;20304;-67
2021/10/05 08:23:53;;;;;;;10.13;5.43;;;;;;;-145.18;0.00;102943.50;5029590;28;20025;-67
2021/10/05 08:26:20;;;;;;;12.50;6.03;;;;;;;-145.18;0.00;102943.50;5036423;28;20476;-67
2021/10/05 08:28:46;;;;;;;13.17;6.20;;;;;;;-145.18;0.00;102943.50;5033703;28;20033;-67
2021/10/05 08:31:11;;;;;;;11.60;5.87;;;;;;;-145.18;0.00;102943.50;5038952;28;20020;-67
2021/10/05 08:33:37;;;;;;;11.13;5.57;;;;;;;-145.18;0.00;102943.50;5035327;28;20487;-67
2021/10/05 08:36:03;;;;;;;11.03;5.23;;;;;;;-145.18;0.00;102943.50;5038179;28;20024;-67
2021/10/05 08:38:28;;;;;;;10.87;5.20;;;;;;;-145.18;0.00;102943.50;5035958;28;20474;-67
2021/10/05 08:40:55;;;;;;;10.67;5.83;;;;;;;-145.18;0.00;102943.50;5038058;28;20444;-67
2021/10/05 08:43:21;;;;;;;11.87;5.43;;;;;;;-145.18;0.00;102943.50;5038851;28;20032;-67
2021/10/05 08:45:47;;;;;;;9.43;5.30;;;;;;;-145.18;0.00;102943.50;5041369;28;20025;-67
2021/10/05 08:48:13;;;;;;;10.43;5.50;;;;;;;-145.18;0.00;102943.50;5033112;28;20458;-67
2021/10/05 08:50:39;;;;;;;10.60;5.40;;;;;;;-145.18;0.00;102943.50;5041561;28;20021;-67
2021/10/05 08:53:04;;;;;;;12.77;5.97;;;;;;;-145.18;0.00;102943.50;5040322;28;20397;-67
2021/10/05 08:55:30;;;;;;;12.10;5.90;;;;;;;-145.18;0.00;102943.50;5041451;28;20021;-67
2021/10/05 08:57:55;;;;;;;11.90;5.60;;;;;;;-145.18;0.00;102943.50;5040839;28;20554;-67
2021/10/05 09:00:22;;;;;;;9.97;5.10;;;;;;;-145.18;0.00;102943.50;5041460;28;20090;-68
2021/10/05 09:02:54;;;;;;;11.10;5.70;;;;;;;-145.18;0.00;102943.50;5040975;28;20049;-67
2021/10/05 09:05:20;;;;;;;9.00;4.97;;;;;;;-145.18;0.00;102943.50;5036418;28;20211;-67
2021/10/05 09:07:49;;;;;;;12.97;5.37;;;;;;;-145.18;0.00;102943.50;5040849;28;20029;-67
2021/10/05 09:10:17;;;;;;;10.97;5.37;;;;;;;-145.18;0.00;102943.50;5029298;28;20060;-67
2021/10/05 09:12:43;;;;;;;10.87;5.67;;;;;;;-145.18;0.00;102943.50;5041292;28;20097;-67
2021/10/05 09:15:12;;;;;;;12.27;5.93;;;;;;;-145.18;0.00;102943.50;5029812;28;20409;-67
2021/10/05 09:17:37;;;;;;;10.13;5.53;;;;;;;-145.18;0.00;102943.50;5040583;28;20466;-67
2021/10/05 09:20:24;;;;;;;10.77;5.67;;;;;;;-145.18;0.00;102943.50;5030534;28;20100;-67
2021/10/05 09:23:09;;;;;;;10.13;5.10;;;;;;;-145.18;0.00;102943.50;5040153;28;20029;-67
2021/10/05 09:25:54;;;;;;;9.60;5.10;;;;;;;-145.18;0.00;102943.50;5034721;28;20033;-67
2021/10/05 09:28:32;;;;;;;11.47;5.17;;;;;;;-145.18;0.00;102943.50;5035628;28;20053;-67
2021/10/05 09:31:01;;;;;;;11.53;5.67;;;;;;;-145.18;0.00;102943.50;5038992;28;20502;-67
2021/10/05 09:33:28;;;;;;;8.40;4.80;;;;;;;-145.18;0.00;102943.50;5034875;28;20403;-67
2021/10/05 09:35:54;;;;;;;8.50;4.67;;;;;;;-145.18;0.00;102943.50;5039580;28;20047;-67
2021/10/05 09:38:23;;;;;;;11.07;5.63;;;;;;;-145.18;0.00;102943.50;5035056;28;20021;-67
2021/10/05 09:41:07;;;;;;;8.83;5.10;;;;;;;-145.18;0.00;102943.50;5038660;28;20185;-67
2021/10/05 09:43:34;;;;;;;10.13;5.30;;;;;;;-145.18;0.00;102943.50;5037309;28;20159;-67
2021/10/05 09:46:15;;;;;;;8.47;4.70;;;;;;;-145.18;0.00;102943.50;5040476;28;20029;-67
2021/10/05 09:48:42;;;;;;;9.53;4.40;;;;;;;-145.18;0.00;102943.50;5038439;28;20285;-67
2021/10/05 09:51:19;;;;;;;8.50;4.70;;;;;;;-145.18;0.00;102943.50;5032509;28;20622;-67
2021/10/05 09:53:45;;;;;;;9.93;4.20;;;;;;;-145.18;0.00;102943.50;5039373;28;20211;-69
2021/10/05 09:56:13;;;;;;;8.73;4.50;;;;;;;-145.18;0.00;102943.50;5040515;28;20037;-68
2021/10/05 09:58:39;;;;;;;8.17;4.33;;;;;;;-145.18;0.00;102943.50;5032322;28;20025;-67
2021/10/05 10:01:05;;;;;;;7.43;4.27;;;;;;;-145.18;0.00;102943.50;5034457;28;20075;-68
2021/10/05 10:03:31;;;;;;;7.07;3.97;;;;;;;-145.18;0.00;102943.50;5033572;28;20504;-68
2021/10/05 10:05:59;;;;;;;9.47;4.50;;;;;;;-145.18;0.00;102943.50;5034503;28;20064;-68
2021/10/05 10:08:25;;;;;;;8.03;4.47;;;;;;;-145.18;0.00;102943.50;5034600;28;20025;-68
2021/10/05 10:10:51;;;;;;;8.37;4.27;;;;;;;-145.18;0.00;102943.50;5034595;28;20572;-67
2021/10/05 10:13:19;;;;;;;7.63;4.20;;;;;;;-145.18;0.00;102943.50;5035756;28;20030;-67
2021/10/05 10:15:46;;;;;;;10.10;4.00;;;;;;;-145.18;0.00;102943.50;5034922;28;20048;-68
2021/10/05 10:18:19;;;;;;;8.80;4.73;;;;;;;-145.18;0.00;102943.50;5036282;28;20040;-67
2021/10/05 10:20:50;;;;;;;8.40;3.83;;;;;;;-145.18;0.00;102943.50;5035225;28;20055;-68
2021/10/05 10:23:26;;;;;;;7.23;4.00;;;;;;;-145.18;0.00;102943.50;5035389;28;20065;-68
2021/10/05 10:26:02;;;;;;;7.37;3.80;;;;;;;-145.18;0.00;102943.50;5038027;28;20114;-68
2021/10/05 10:28:35;;;;;;;7.80;4.07;;;;;;;-145.18;0.00;102943.50;5033920;28;20052;-67
2021/10/05 10:31:04;;;;;;;9.07;4.57;;;;;;;-145.18;0.00;102943.50;5025994;28;20108;-67
2021/10/05 10:33:45;;;;;;;6.80;3.57;;;;;;;-145.18;0.00;102943.50;5034481;28;20026;-67
2021/10/05 10:36:12;;;;;;;7.47;3.85;;;;;;;-145.18;0.00;102943.50;5039315;28;20033;-68
2021/10/05 10:38:42;;;;;;;6.57;3.67;;;;;;;-145.18;0.00;102943.50;5035111;28;20063;-68
2021/10/05 10:41:19;;;;;;;15.40;4.27;;;;;;;-145.18;0.00;102943.50;5038826;28;20186;-67
2021/10/05 10:43:54;;;;;;;6.50;3.60;;;;;;;-145.18;0.00;102943.50;5036469;28;20082;-67
2021/10/05 10:46:25;;;;;;;7.00;3.60;;;;;;;-145.18;0.00;102943.50;5037686;28;20550;-68
2021/10/05 10:48:56;;;;;;;8.07;3.85;;;;;;;-145.18;0.00;102943.50;5032996;28;20169;-67
2021/10/05 10:51:29;;;;;;;11.93;3.80;;;;;;;-145.18;0.00;102943.50;5028919;28;20431;-68
2021/10/05 10:53:58;;;;;;;6.63;3.33;;;;;;;-145.18;0.00;102943.50;5034233;28;20044;-68
2021/10/05 10:56:35;;;;;;;7.17;3.40;;;;;;;-145.18;0.00;102943.50;5032981;28;20438;-68
2021/10/05 10:59:06;;;;;;;5.80;3.27;;;;;;;-145.18;0.00;102943.50;5036316;28;20287;-68
2021/10/05 11:01:46;;;;;;;6.45;3.40;;;;;;;-145.18;0.00;102943.50;5033274;28;20498;-68
2021/10/05 11:04:15;;;;;;;6.43;3.63;;;;;;;-145.18;0.00;102943.50;5038396;28;20057;-68
2021/10/05 11:06:44;;;;;;;5.90;3.03;;;;;;;-145.18;0.00;102943.50;5038921;28;20116;-68
2021/10/05 11:09:10;;;;;;;5.93;3.07;;;;;;;-145.18;0.00;102943.50;5034886;28;20357;-68
2021/10/05 11:11:42;;;;;;;6.47;3.20;;;;;;;-145.18;0.00;102943.50;5029303;28;20112;-68